Time;durP1;ratioP1;P1;durP2;ratioP2;P2;SDS_P1;SDS_P2;PMS_P1;PMS_P2;Temp;Humidity;BMP_temperature;BMP_pressure;BME280_temperature;BME280_humidity;BME280_pressure;Samples;Min_cycle;Max_cycle;Signal;HPM_P1;HPM_P2
2021/04/17 00:02:05;;;;;;;11.25;8.55;;;;;;;9.34;96.15;101551.97;5055407;28;20033;-73
2021/04/17 00:04:51;;;;;;;12.98;8.63;;;;;;;9.59;95.52;101555.44;5055691;28;20369;-73
2021/04/17 00:07:37;;;;;;;11.38;8.25;;;;;;;9.44;96.15;101560.66;5055182;28;20021;-73
2021/04/17 00:10:23;;;;;;;10.38;8.15;;;;;;;9.47;95.46;101551.09;5041151;28;20517;-72
2021/04/17 00:13:09;;;;;;;11.90;8.32;;;;;;;9.54;95.04;101550.22;5054997;28;20111;-73
2021/04/17 00:15:55;;;;;;;14.95;8.45;;;;;;;9.53;95.15;101538.00;5055810;28;20068;-72
2021/04/17 00:18:40;;;;;;;11.80;8.73;;;;;;;9.63;94.12;101541.47;5040573;28;20025;-72
2021/04/17 00:21:26;;;;;;;13.43;8.40;;;;;;;9.55;95.43;101540.63;5055377;28;20029;-73
2021/04/17 00:24:12;;;;;;;13.50;8.98;;;;;;;9.41;98.06;101537.16;5055363;28;20056;-73
2021/04/17 00:26:58;;;;;;;14.20;9.93;;;;;;;9.02;99.94;101535.38;5055124;28;20028;-73
2021/04/17 00:29:44;;;;;;;13.63;9.63;;;;;;;9.25;98.31;101538.84;5055479;28;20102;-73
2021/04/17 00:32:30;;;;;;;12.88;9.50;;;;;;;9.21;97.67;101544.09;5055174;28;20033;-72
2021/04/17 00:35:17;;;;;;;12.45;9.77;;;;;;;9.07;99.43;101535.34;5055490;28;20032;-72
2021/04/17 00:38:02;;;;;;;11.77;8.95;;;;;;;9.02;99.19;101539.72;5054630;28;20025;-72
2021/04/17 00:40:48;;;;;;;14.40;8.90;;;;;;;9.11;97.96;101551.06;5055200;28;20021;-73
2021/04/17 00:43:34;;;;;;;11.93;8.80;;;;;;;9.33;98.05;101549.34;5054492;28;20096;-73
2021/04/17 00:46:20;;;;;;;12.88;9.32;;;;;;;9.12;99.35;101549.28;5053377;28;20416;-72
2021/04/17 00:49:11;;;;;;;11.98;9.18;;;;;;;9.17;98.89;101547.59;5054643;28;20064;-72
2021/04/17 00:51:58;;;;;;;14.90;9.20;;;;;;;8.99;98.28;101553.66;5054866;28;20021;-72
2021/04/17 00:54:43;;;;;;;13.85;9.20;;;;;;;8.75;100.00;101560.53;5054492;28;20021;-73
2021/04/17 00:57:29;;;;;;;14.63;9.43;;;;;;;9.05;99.00;101558.03;5054423;28;20374;-73
2021/04/17 01:00:16;;;;;;;14.88;9.80;;;;;;;9.08;98.08;101558.00;5039237;28;20222;-73
2021/04/17 01:03:10;;;;;;;15.73;10.00;;;;;;;9.00;97.92;101546.66;5054285;28;20098;-73
2021/04/17 01:06:02;;;;;;;12.25;9.73;;;;;;;9.12;98.04;101554.53;5039632;28;20024;-73
2021/04/17 01:09:29;;;;;;;11.60;8.65;;;;;;;9.04;97.94;101545.78;5054269;28;20032;-72
2021/04/17 01:12:29;;;;;;;13.00;9.35;;;;;;;8.76;100.00;101549.25;5029908;28;20234;-72
2021/04/17 01:15:16;;;;;;;13.52;9.43;;;;;;;8.86;100.00;101545.75;5054179;28;20025;-72
2021/04/17 01:18:02;;;;;;;11.13;8.68;;;;;;;9.11;99.09;101551.06;5054097;28;20093;-72
2021/04/17 01:20:51;;;;;;;13.32;9.23;;;;;;;9.34;95.43;101540.63;5053850;28;20153;-73
2021/04/17 01:23:41;;;;;;;11.85;9.02;;;;;;;9.21;96.11;101539.72;5054333;28;20029;-72
2021/04/17 01:26:27;;;;;;;12.77;9.32;;;;;;;8.93;97.89;101540.53;5053985;28;20342;-73
2021/04/17 01:29:13;;;;;;;11.63;9.10;;;;;;;8.72;99.13;101531.81;5054037;28;20052;-72
2021/04/17 01:32:01;;;;;;;10.88;8.43;;;;;;;8.89;97.53;101520.50;5053935;28;20017;-73
2021/04/17 01:34:50;;;;;;;15.20;8.68;;;;;;;9.02;97.66;101519.69;5054091;28;20044;-73
2021/04/17 01:38:04;;;;;;;10.70;8.38;;;;;;;8.95;98.55;101517.03;5053668;28;20035;-73
2021/04/17 01:40:58;;;;;;;11.85;9.20;;;;;;;8.94;98.57;101518.78;5053366;28;20029;-73
2021/04/17 01:43:50;;;;;;;11.00;8.25;;;;;;;8.81;98.62;101510.91;5053468;28;20025;-73
2021/04/17 01:46:42;;;;;;;13.35;9.75;;;;;;;8.43;100.00;101509.91;5054004;28;20112;-73
2021/04/17 01:49:30;;;;;;;11.68;9.23;;;;;;;8.91;100.00;101507.44;5053510;28;20032;-73
2021/04/17 01:52:20;;;;;;;12.75;9.18;;;;;;;8.66;99.09;101501.31;5053982;28;20065;-73
2021/04/17 01:55:07;;;;;;;16.10;9.00;;;;;;;8.28;100.00;101510.72;5053525;28;20029;-74
2021/04/17 01:57:54;;;;;;;13.10;9.10;;;;;;;8.78;100.00;101509.19;5053907;28;20033;-73
2021/04/17 02:00:40;;;;;;;12.23;8.77;;;;;;;8.84;100.00;101501.34;5053706;28;20021;-72
2021/04/17 02:03:26;;;;;;;12.50;9.35;;;;;;;8.83;100.00;101491.75;5052394;28;20024;-72
2021/04/17 02:06:12;;;;;;;12.50;8.90;;;;;;;8.76;100.00;101497.84;5052870;28;20021;-73
2021/04/17 02:08:58;;;;;;;19.05;9.93;;;;;;;8.43;100.00;101492.53;5053427;28;20130;-73
2021/04/17 02:11:44;;;;;;;15.23;9.73;;;;;;;8.72;100.00;101496.09;5057680;28;20063;-72
2021/04/17 02:14:30;;;;;;;13.80;9.60;;;;;;;9.08;100.00;101498.75;5057431;28;20025;-73
2021/04/17 02:17:24;;;;;;;12.38;9.02;;;;;;;8.76;100.00;101492.63;5043345;28;20036;-73
2021/04/17 02:20:13;;;;;;;13.85;9.45;;;;;;;8.68;100.00;101494.34;5057074;28;20081;-73
2021/04/17 02:22:59;;;;;;;14.20;9.68;;;;;;;8.91;99.79;101507.44;5057827;28;20395;-73
2021/04/17 02:25:45;;;;;;;12.57;9.27;;;;;;;8.95;100.00;101509.19;5057255;28;20033;-72
2021/04/17 02:28:32;;;;;;;11.20;8.98;;;;;;;9.13;98.17;101498.78;5057711;28;20029;-72
2021/04/17 02:31:17;;;;;;;13.25;9.40;;;;;;;9.02;98.70;101490.94;5042553;28;20028;-73
2021/04/17 02:34:03;;;;;;;12.80;9.25;;;;;;;9.25;96.23;101491.78;5056816;28;20048;-73
2021/04/17 02:36:49;;;;;;;12.82;9.27;;;;;;;8.74;99.82;101485.63;5042139;28;20025;-73
2021/04/17 02:39:36;;;;;;;12.15;8.82;;;;;;;8.98;99.58;101481.34;5057115;28;20469;-73
2021/04/17 02:42:21;;;;;;;14.10;9.15;;;;;;;8.77;100.00;101478.66;5057556;28;20028;-73
2021/04/17 02:45:08;;;;;;;11.88;9.50;;;;;;;8.74;100.00;101483.03;5056963;28;20375;-73
2021/04/17 02:47:54;;;;;;;13.65;9.52;;;;;;;9.18;99.35;101486.56;5057472;28;20047;-72
2021/04/17 02:50:39;;;;;;;11.80;8.80;;;;;;;9.09;99.35;101478.75;5057778;28;20422;-73
2021/04/17 02:53:25;;;;;;;15.40;9.88;;;;;;;8.84;100.00;101476.97;5057083;28;20028;-73
2021/04/17 02:56:11;;;;;;;15.38;9.45;;;;;;;8.58;100.00;101476.03;5056561;28;20048;-72
2021/04/17 02:58:57;;;;;;;15.38;9.80;;;;;;;8.74;100.00;101472.59;5057256;28;20511;-73
2021/04/17 03:01:43;;;;;;;13.85;9.75;;;;;;;8.74;100.00;101472.59;5055823;28;20055;-73
2021/04/17 03:04:29;;;;;;;13.65;9.13;;;;;;;8.71;100.00;101476.06;5057071;28;20029;-73
2021/04/17 03:07:14;;;;;;;13.10;9.32;;;;;;;8.50;100.00;101472.53;5042168;28;20024;-73
2021/04/17 03:10:00;;;;;;;14.82;9.90;;;;;;;8.68;100.00;101477.81;5056897;28;20024;-72
2021/04/17 03:12:46;;;;;;;14.18;10.63;;;;;;;8.75;100.00;101476.94;5028864;28;20029;-74
2021/04/17 03:15:32;;;;;;;16.77;10.20;;;;;;;8.72;100.00;101484.78;5056406;28;20112;-73
2021/04/17 03:18:18;;;;;;;17.13;11.38;;;;;;;8.66;100.00;101479.53;5056481;28;20025;-73
2021/04/17 03:21:04;;;;;;;17.67;12.48;;;;;;;8.90;100.00;101480.47;5055757;28;20037;-73
2021/04/17 03:23:50;;;;;;;20.77;11.38;;;;;;;8.81;100.00;101496.09;5041547;28;20029;-73
2021/04/17 03:26:36;;;;;;;15.35;11.32;;;;;;;9.03;100.00;101494.41;5040825;28;20040;-72
2021/04/17 03:29:22;;;;;;;18.20;11.45;;;;;;;8.61;100.00;101495.19;5056555;28;20053;-74
2021/04/17 03:32:08;;;;;;;14.68;10.32;;;;;;;8.99;100.00;101495.25;5055582;28;20103;-73
2021/04/17 03:34:53;;;;;;;13.55;10.43;;;;;;;9.06;100.00;101500.53;5056294;28;20107;-73
2021/04/17 03:37:40;;;;;;;18.98;11.82;;;;;;;8.91;100.00;101499.59;5055246;28;20024;-73
2021/04/17 03:40:28;;;;;;;18.15;12.90;;;;;;;9.16;100.00;101507.47;5055264;28;20025;-72
2021/04/17 03:43:13;;;;;;;21.67;12.48;;;;;;;8.78;100.00;101510.91;5055367;28;20032;-73
2021/04/17 03:45:59;;;;;;;16.15;10.30;;;;;;;8.24;100.00;101514.19;5055772;28;20028;-73
2021/04/17 03:48:45;;;;;;;15.80;10.75;;;;;;;8.14;100.00;101530.66;5041675;28;20025;-73
2021/04/17 03:51:31;;;;;;;15.32;10.48;;;;;;;8.02;100.00;101537.53;5055578;28;20021;-73
2021/04/17 03:54:17;;;;;;;14.50;10.63;;;;;;;8.63;100.00;101543.09;5054889;28;20103;-73
2021/04/17 03:57:03;;;;;;;14.00;10.77;;;;;;;8.49;100.00;101549.13;5055530;28;20366;-73
2021/04/17 03:59:48;;;;;;;15.25;10.27;;;;;;;8.65;100.00;101546.56;5056048;28;20024;-72
2021/04/17 04:02:34;;;;;;;17.23;11.10;;;;;;;8.55;100.00;101549.13;5055308;28;20025;-73
2021/04/17 04:05:20;;;;;;;15.82;10.32;;;;;;;8.61;100.00;101550.03;5056016;28;20359;-73
2021/04/17 04:08:06;;;;;;;13.32;10.60;;;;;;;8.81;100.00;101548.34;5054507;28;20071;-73
2021/04/17 04:10:52;;;;;;;15.48;11.43;;;;;;;8.69;100.00;101557.91;5054912;28;20441;-73
2021/04/17 04:13:38;;;;;;;15.80;10.65;;;;;;;8.40;100.00;101556.94;5054890;28;20366;-73
2021/04/17 04:16:23;;;;;;;15.38;11.88;;;;;;;8.55;100.00;101564.81;5041416;28;20021;-73
2021/04/17 04:19:09;;;;;;;15.40;11.20;;;;;;;8.67;100.00;101560.50;5054979;28;20053;-74
2021/04/17 04:21:56;;;;;;;21.48;12.27;;;;;;;8.72;100.00;101555.31;5054669;28;20041;-73
2021/04/17 04:24:42;;;;;;;16.42;11.18;;;;;;;9.05;100.00;101563.25;5040754;28;20035;-73
2021/04/17 04:27:27;;;;;;;13.65;9.68;;;;;;;8.85;100.00;101562.31;5055041;28;20036;-74
2021/04/17 04:30:13;;;;;;;13.23;9.38;;;;;;;9.31;98.20;101559.81;5055229;28;20033;-74
2021/04/17 04:32:59;;;;;;;14.43;9.00;;;;;;;9.70;94.96;101562.41;5054196;28;20480;-73
2021/04/17 04:35:45;;;;;;;12.35;9.43;;;;;;;10.22;90.32;101562.38;5054878;28;20071;-72
2021/04/17 04:38:31;;;;;;;13.18;9.23;;;;;;;10.36;88.16;101568.44;5053394;28;20017;-72
2021/04/17 04:41:16;;;;;;;13.23;9.65;;;;;;;10.37;86.29;101563.19;5055599;28;20412;-73
2021/04/17 04:44:06;;;;;;;12.82;9.50;;;;;;;10.28;86.88;101567.59;5054177;28;20021;-75
2021/04/17 04:46:52;;;;;;;16.92;11.88;;;;;;;10.22;90.49;101576.34;5054588;28;20067;-73
2021/04/17 04:49:38;;;;;;;19.73;13.88;;;;;;;9.82;98.06;101574.63;5054341;28;20111;-74
2021/04/17 04:52:23;;;;;;;15.68;12.93;;;;;;;9.41;100.00;101568.53;5054732;28;20165;-73
2021/04/17 04:55:15;;;;;;;16.73;12.70;;;;;;;9.79;100.00;101572.00;5112251;27;20345;-73
2021/04/17 04:58:01;;;;;;;17.83;12.35;;;;;;;9.55;100.00;101566.78;5130508;28;20128;-73
2021/04/17 05:00:46;;;;;;;17.35;11.95;;;;;;;9.55;100.00;101566.78;5132792;28;20023;-72
2021/04/17 05:03:32;;;;;;;18.33;12.45;;;;;;;9.68;100.00;101565.91;5148682;27;20118;-73
2021/04/17 05:06:18;;;;;;;17.80;12.23;;;;;;;9.57;100.00;101575.50;5152840;27;20049;-72
2021/04/17 05:09:05;;;;;;;16.70;10.70;;;;;;;9.87;100.00;101575.47;5152099;27;20049;-73
2021/04/17 05:11:51;;;;;;;17.80;12.60;;;;;;;9.95;100.00;101571.13;5153004;27;20034;-73
2021/04/17 05:14:37;;;;;;;21.08;14.00;;;;;;;9.72;100.00;101563.28;5152299;27;20034;-73
2021/04/17 05:17:22;;;;;;;22.48;13.98;;;;;;;9.80;100.00;101564.16;5152316;27;20140;-73
2021/04/17 05:20:09;;;;;;;21.98;13.68;;;;;;;10.26;100.00;101564.97;5151375;27;20519;-73
2021/04/17 05:22:54;;;;;;;23.38;14.52;;;;;;;10.14;100.00;101558.00;5151966;27;20058;-73
2021/04/17 05:25:40;;;;;;;23.65;15.30;;;;;;;10.64;100.00;101559.63;5136700;27;20041;-73
2021/04/17 05:28:26;;;;;;;21.83;15.07;;;;;;;10.49;100.00;101564.91;5152503;27;20500;-73
2021/04/17 05:31:12;;;;;;;23.65;16.10;;;;;;;10.58;100.00;101565.75;5150585;27;20094;-73
2021/04/17 05:33:58;;;;;;;21.92;15.32;;;;;;;11.07;100.00;101567.25;5152741;27;20038;-73
2021/04/17 05:36:43;;;;;;;21.08;14.52;;;;;;;10.60;100.00;101569.22;5152196;27;20027;-72
2021/04/17 05:39:29;;;;;;;25.08;15.60;;;;;;;10.69;100.00;101563.94;5151341;27;20029;-73
2021/04/17 05:42:15;;;;;;;32.53;20.27;;;;;;;10.41;100.00;101562.28;5151349;27;20037;-74
2021/04/17 05:45:01;;;;;;;30.00;17.50;;;;;;;10.42;100.00;101556.19;5151942;27;20016;-71
2021/04/17 05:47:47;;;;;;;29.67;16.63;;;;;;;10.40;100.00;101551.84;5152240;27;20029;-72
2021/04/17 05:50:33;;;;;;;24.10;15.48;;;;;;;10.86;100.00;101532.41;5151631;27;20022;-73
2021/04/17 05:53:18;;;;;;;24.25;14.82;;;;;;;11.21;100.00;101539.16;5129297;27;20367;-72
2021/04/17 05:56:05;;;;;;;20.50;15.27;;;;;;;10.83;100.00;101530.66;5136088;27;20023;-73
2021/04/17 05:58:50;;;;;;;24.67;17.25;;;;;;;10.97;100.00;101525.34;5150365;27;20037;-72
2021/04/17 06:01:36;;;;;;;20.60;14.07;;;;;;;11.05;99.69;101529.66;5150031;27;20035;-72
2021/04/17 06:04:22;;;;;;;18.45;12.57;;;;;;;11.25;96.50;101532.16;5151236;27;20076;-73
2021/04/17 06:07:08;;;;;;;21.98;12.32;;;;;;;11.17;95.94;101526.09;5136792;27;20401;-73
2021/04/17 06:09:54;;;;;;;23.95;14.18;;;;;;;11.40;95.23;101527.66;5136415;27;20024;-73
2021/04/17 06:12:46;;;;;;;17.92;13.32;;;;;;;11.53;93.95;101526.66;5136286;27;20463;-72
2021/04/17 06:15:32;;;;;;;21.17;13.93;;;;;;;11.72;91.46;101528.28;5120961;27;20027;-73
2021/04/17 06:18:18;;;;;;;19.75;13.65;;;;;;;11.56;91.92;101534.50;5123210;27;20134;-73
2021/04/17 06:21:05;;;;;;;26.75;14.77;;;;;;;11.94;89.75;101526.31;5136745;27;20085;-72
2021/04/17 06:23:51;;;;;;;18.98;14.02;;;;;;;11.40;91.21;101522.41;5139923;27;20019;-73
2021/04/17 06:26:38;;;;;;;24.15;17.15;;;;;;;11.37;93.47;101511.94;5137910;27;20027;-73
2021/04/17 06:29:24;;;;;;;26.90;18.02;;;;;;;11.61;89.14;101522.25;5137878;27;20042;-73
2021/04/17 06:32:10;;;;;;;19.30;13.77;;;;;;;11.88;84.12;101521.13;5137961;27;20027;-73
2021/04/17 06:34:56;;;;;;;27.27;15.65;;;;;;;11.50;84.36;101517.97;5122437;27;20482;-74
2021/04/17 06:37:41;;;;;;;22.15;15.50;;;;;;;11.77;84.74;101520.38;5136832;27;20031;-71
2021/04/17 06:40:27;;;;;;;20.23;14.70;;;;;;;11.51;85.22;101525.81;5137107;27;20050;-73
2021/04/17 06:43:15;;;;;;;21.23;14.93;;;;;;;12.09;83.17;101513.88;5114089;27;20011;-73
2021/04/17 06:46:01;;;;;;;22.95;15.93;;;;;;;12.30;82.26;101508.38;5136639;27;20041;-73
2021/04/17 06:48:47;;;;;;;22.60;14.73;;;;;;;11.73;84.73;101511.63;5136640;27;20446;-73
2021/04/17 06:51:36;;;;;;;20.13;13.98;;;;;;;12.16;80.34;101509.44;5122591;27;20369;-73
2021/04/17 06:54:26;;;;;;;21.75;15.70;;;;;;;11.86;84.96;101517.66;5122957;27;20378;-72
2021/04/17 06:57:13;;;;;;;23.02;16.50;;;;;;;11.29;89.97;101505.88;5137473;27;20023;-73
2021/04/17 07:00:01;;;;;;;23.83;14.57;;;;;;;11.71;85.88;101510.78;5135830;27;20027;-74
2021/04/17 07:02:47;;;;;;;24.30;14.15;;;;;;;11.56;87.29;101508.28;5135927;27;20023;-73
2021/04/17 07:05:33;;;;;;;22.10;13.85;;;;;;;11.77;85.71;101508.09;5135800;27;20023;-73
2021/04/17 07:08:19;;;;;;;24.48;14.10;;;;;;;12.28;81.50;101506.66;5121997;27;20044;-73
2021/04/17 07:11:04;;;;;;;19.63;12.82;;;;;;;12.47;80.49;101503.81;5122104;27;20023;-73
2021/04/17 07:14:19;;;;;;;18.92;13.93;;;;;;;12.46;82.75;101494.16;5134532;27;20385;-73
2021/04/17 07:17:15;;;;;;;19.35;13.68;;;;;;;12.90;82.15;101494.44;5135002;27;20110;-75
2021/04/17 07:20:59;;;;;;;18.80;13.32;;;;;;;11.65;84.82;101492.47;5121127;27;20209;-73
2021/04/17 07:23:46;;;;;;;18.48;12.77;;;;;;;12.18;83.64;101487.50;5121574;27;20124;-72
2021/04/17 07:26:32;;;;;;;15.52;12.23;;;;;;;12.64;82.21;101485.19;5122331;27;20023;-73
2021/04/17 07:29:47;;;;;;;21.05;12.43;;;;;;;12.58;80.39;101488.75;5135965;27;20062;-72
2021/04/17 07:32:36;;;;;;;19.08;11.40;;;;;;;13.23;77.73;101487.84;5120429;27;20030;-73
2021/04/17 07:35:25;;;;;;;27.10;12.73;;;;;;;12.07;82.66;101481.53;5135951;27;20344;-76
2021/04/17 07:38:15;;;;;;;17.70;12.90;;;;;;;11.77;89.29;101476.59;5136839;27;20031;-74
2021/04/17 07:41:06;;;;;;;18.33;12.13;;;;;;;12.40;85.85;101481.13;5136960;27;20131;-74
2021/04/17 07:44:11;;;;;;;18.90;12.52;;;;;;;13.26;82.52;101483.38;5120750;27;20019;-72
2021/04/17 07:47:23;;;;;;;15.25;11.77;;;;;;;12.76;85.38;101485.88;5136044;27;20409;-72
2021/04/17 07:50:17;;;;;;;17.00;12.43;;;;;;;13.14;85.74;101478.31;5036761;27;20171;-75
2021/04/17 07:56:24;;;;;;;16.05;11.35;;;;;;;13.27;84.09;101479.00;5137076;22;20072;-72
2021/04/17 07:59:09;;;;;;;18.83;12.20;;;;;;;13.92;83.06;101478.69;5056328;28;20033;-73
2021/04/17 08:02:00;;;;;;;19.35;12.02;;;;;;;13.80;83.09;101477.16;5040048;28;20415;-72
2021/04/17 08:05:43;;;;;;;16.13;12.20;;;;;;;14.42;78.70;101475.94;5041269;28;20036;-77
2021/04/17 08:08:29;;;;;;;20.45;11.73;;;;;;;14.61;76.92;101472.00;4973393;28;20041;-72
2021/04/17 08:11:30;;;;;;;14.60;11.48;;;;;;;15.47;73.58;101462.91;4975586;28;20077;-77
2021/04/17 08:14:21;;;;;;;16.25;11.48;;;;;;;15.80;70.54;101466.47;4973592;28;20057;-75
2021/04/17 08:17:17;;;;;;;17.23;11.43;;;;;;;15.15;71.12;101457.53;4962927;28;20026;-74
2021/04/17 08:20:03;;;;;;;16.15;11.65;;;;;;;15.29;72.17;101458.06;5041001;28;20370;-72
2021/04/17 08:22:52;;;;;;;16.88;11.45;;;;;;;15.35;71.75;101465.03;5054442;28;20025;-72
2021/04/17 08:25:38;;;;;;;21.50;12.50;;;;;;;15.13;72.62;101459.34;5053522;28;20090;-73
2021/04/17 08:28:27;;;;;;;23.88;12.88;;;;;;;15.69;70.50;101456.19;5052898;28;20540;-73
2021/04/17 08:34:20;;;;;;;16.90;12.02;;;;;;;15.75;68.94;101440.16;5110758;22;20346;-74
2021/04/17 08:37:05;;;;;;;14.93;11.75;;;;;;;16.33;67.73;101429.69;5073372;28;20047;-74
2021/04/17 08:39:54;;;;;;;18.05;11.77;;;;;;;16.66;64.79;101430.44;5073761;28;20041;-73
2021/04/17 08:42:47;;;;;;;17.98;11.35;;;;;;;17.12;62.95;101425.44;5073767;28;20043;-73
2021/04/17 08:45:33;;;;;;;13.10;9.77;;;;;;;15.82;61.42;101414.41;5072907;28;20364;-73
2021/04/17 08:48:43;;;;;;;13.77;9.68;;;;;;;15.67;62.92;101421.00;5073642;28;20098;-73
2021/04/17 08:51:35;;;;;;;17.55;10.50;;;;;;;15.71;63.12;101405.94;5058190;28;20518;-74
2021/04/17 08:54:22;;;;;;;20.35;10.55;;;;;;;16.25;61.40;101415.81;5073455;28;20029;-73
2021/04/17 08:57:16;;;;;;;17.20;9.68;;;;;;;16.47;59.37;101406.34;5073525;28;20024;-72
2021/04/17 09:00:05;;;;;;;12.98;8.40;;;;;;;16.90;57.22;101400.56;5074883;28;20082;-73
2021/04/17 09:02:54;;;;;;;11.93;8.20;;;;;;;17.12;55.08;101399.81;5074298;28;20461;-73
2021/04/17 09:05:47;;;;;;;16.30;8.65;;;;;;;17.65;52.74;101393.56;5059982;28;20054;-76
2021/04/17 09:08:37;;;;;;;19.42;8.23;;;;;;;16.95;54.29;101390.69;5058845;28;20063;-74
2021/04/17 09:11:42;;;;;;;14.55;8.30;;;;;;;16.86;53.70;101383.06;5072822;28;20021;-74
2021/04/17 09:14:27;;;;;;;15.57;8.45;;;;;;;16.45;54.23;101373.81;5093323;22;20136;-76
2021/04/17 09:17:31;;;;;;;9.88;7.32;;;;;;;16.29;55.28;101374.25;5060697;28;20105;-72
2021/04/17 09:20:33;;;;;;;15.80;7.25;;;;;;;16.68;55.19;101378.38;5059492;28;20031;-73
2021/04/17 09:23:40;;;;;;;11.15;7.57;;;;;;;16.77;55.07;101355.13;5073803;28;20441;-75
2021/04/17 09:26:32;;;;;;;12.40;7.75;;;;;;;17.01;54.84;101350.78;5058441;28;20431;-74
2021/04/17 09:29:25;;;;;;;11.50;7.53;;;;;;;17.55;52.18;101348.88;5073958;28;20028;-73
2021/04/17 09:32:11;;;;;;;13.98;7.32;;;;;;;17.46;52.33;101331.56;5058735;28;20020;-73
2021/04/17 09:34:57;;;;;;;14.60;8.55;;;;;;;17.07;53.59;101334.69;5045319;28;20028;-73
2021/04/17 09:37:45;;;;;;;12.73;7.93;;;;;;;16.79;53.22;101329.44;5072316;28;20039;-73
2021/04/17 09:40:36;;;;;;;16.27;8.70;;;;;;;17.49;52.74;101318.16;5074530;28;20058;-73
2021/04/17 09:43:33;;;;;;;16.35;8.18;;;;;;;17.59;52.80;101322.22;5075529;28;20021;-73
2021/04/17 09:46:19;;;;;;;15.90;9.55;;;;;;;16.78;53.92;101309.22;5076603;28;20118;-74
2021/04/17 09:49:05;;;;;;;16.98;8.35;;;;;;;17.70;51.70;101305.94;5076611;28;20040;-73
2021/04/17 09:51:55;;;;;;;10.85;6.88;;;;;;;17.97;49.68;101310.22;5076607;28;20058;-73
2021/04/17 09:54:41;;;;;;;13.07;7.10;;;;;;;17.61;52.03;101314.22;5076720;28;20036;-73
2021/04/17 09:57:28;;;;;;;12.60;7.38;;;;;;;17.32;52.21;101303.78;5076099;28;20035;-73
2021/04/17 10:00:15;;;;;;;14.32;7.00;;;;;;;17.22;52.46;101297.09;5076363;28;20032;-72
2021/04/17 10:03:01;;;;;;;9.57;6.85;;;;;;;17.70;52.35;101293.56;5075656;28;20090;-72
2021/04/17 10:05:47;;;;;;;11.65;6.55;;;;;;;17.75;52.52;101288.94;5075369;28;20115;-72
2021/04/17 10:08:35;;;;;;;11.93;6.88;;;;;;;17.57;52.90;101289.59;5061650;28;20111;-72
2021/04/17 10:11:28;;;;;;;8.75;6.70;;;;;;;17.36;52.95;101300.13;5060958;28;20035;-72
2021/04/17 10:14:16;;;;;;;12.05;6.70;;;;;;;17.37;52.78;101291.25;5075441;28;20083;-73
2021/04/17 10:17:02;;;;;;;9.30;6.80;;;;;;;17.16;52.33;101289.38;5062649;28;20107;-72
2021/04/17 10:19:48;;;;;;;10.48;6.70;;;;;;;17.67;51.45;101296.31;5060765;28;20103;-73
2021/04/17 10:22:34;;;;;;;10.57;6.45;;;;;;;17.94;51.24;101289.97;5076444;28;20020;-71
2021/04/17 10:25:34;;;;;;;8.88;7.38;;;;;;;17.74;51.45;101286.34;5074787;28;20013;-72
2021/04/17 10:28:23;;;;;;;8.68;6.45;;;;;;;17.70;51.37;101282.97;5075890;28;20357;-73
2021/04/17 10:31:19;;;;;;;7.45;6.35;;;;;;;18.13;52.05;101280.34;5075551;28;20028;-73
2021/04/17 10:34:05;;;;;;;8.10;5.53;;;;;;;18.26;51.52;101275.44;5076057;28;20040;-72
2021/04/17 10:37:02;;;;;;;9.10;6.05;;;;;;;18.82;49.41;101256.28;5075514;28;20384;-72
2021/04/17 10:40:10;;;;;;;8.20;5.45;;;;;;;19.53;47.83;101258.44;5060693;28;20020;-72
2021/04/17 10:43:03;;;;;;;11.35;5.75;;;;;;;19.38;48.18;101259.16;5075205;28;20475;-72
2021/04/17 10:45:53;;;;;;;9.85;6.57;;;;;;;19.13;47.43;101253.19;5075116;28;20138;-73
2021/04/17 10:48:46;;;;;;;8.02;5.95;;;;;;;18.44;48.32;101253.50;5075304;28;20115;-73
2021/04/17 10:51:38;;;;;;;7.30;5.75;;;;;;;18.61;47.91;101246.56;5075124;28;20024;-72
2021/04/17 10:54:24;;;;;;;6.55;5.40;;;;;;;18.84;47.65;101243.81;5075305;28;20433;-73
2021/04/17 10:57:13;;;;;;;6.28;5.45;;;;;;;18.90;47.31;101245.34;5075007;28;20039;-72
2021/04/17 11:00:04;;;;;;;8.27;5.45;;;;;;;18.61;47.02;101240.41;5075509;28;20086;-72
2021/04/17 11:02:51;;;;;;;6.72;5.65;;;;;;;18.52;46.96;101241.66;5074406;28;20372;-72
2021/04/17 11:05:37;;;;;;;7.85;5.40;;;;;;;17.52;48.23;101246.53;5074485;28;20036;-71
2021/04/17 11:08:28;;;;;;;7.45;5.53;;;;;;;17.79;49.53;101237.53;5075048;28;20024;-72
2021/04/17 11:11:22;;;;;;;7.72;5.75;;;;;;;17.94;48.71;101244.03;5074703;28;20024;-72
2021/04/17 11:14:07;;;;;;;10.40;6.50;;;;;;;17.75;49.67;101227.09;5060854;28;20526;-72
2021/04/17 11:16:54;;;;;;;7.70;5.75;;;;;;;17.67;51.06;101226.53;5074461;28;20028;-72
2021/04/17 11:19:42;;;;;;;6.35;5.43;;;;;;;17.77;49.49;101217.31;5074961;28;20024;-72
2021/04/17 11:22:34;;;;;;;6.32;4.82;;;;;;;18.53;47.67;101211.53;5075760;28;20452;-73
2021/04/17 11:25:20;;;;;;;7.70;5.47;;;;;;;17.20;50.36;101215.03;5074301;28;20099;-72
2021/04/17 11:28:05;;;;;;;7.20;5.22;;;;;;;18.01;49.87;101221.66;5074436;28;20303;-73
2021/04/17 11:30:52;;;;;;;8.23;5.30;;;;;;;19.27;47.22;101218.03;5074426;28;20498;-73
2021/04/17 11:33:38;;;;;;;5.72;5.00;;;;;;;18.99;46.98;101205.09;5074526;28;20036;-73
2021/04/17 11:36:25;;;;;;;7.97;5.40;;;;;;;18.79;47.36;101215.72;5074665;28;20039;-72
2021/04/17 11:39:11;;;;;;;9.75;5.68;;;;;;;18.72;46.86;101211.59;5074598;28;20036;-72
2021/04/17 11:41:57;;;;;;;6.40;4.60;;;;;;;18.40;48.16;101205.00;5074508;28;20067;-73
2021/04/17 11:44:44;;;;;;;7.55;5.10;;;;;;;19.18;46.69;101192.72;5073719;28;20103;-72
2021/04/17 11:47:30;;;;;;;5.63;4.50;;;;;;;19.27;46.36;101195.00;5074512;28;20174;-73
2021/04/17 11:50:16;;;;;;;5.68;4.57;;;;;;;19.28;45.79;101201.19;5059063;28;20402;-73
2021/04/17 11:53:01;;;;;;;6.10;4.78;;;;;;;19.17;45.36;101183.88;5073643;28;20441;-72
2021/04/17 11:55:50;;;;;;;6.00;4.45;;;;;;;19.12;45.46;101195.66;5058904;28;20040;-72
2021/04/17 11:58:36;;;;;;;7.18;4.25;;;;;;;18.11;45.48;101192.06;5060302;28;20106;-73
2021/04/17 12:01:22;;;;;;;6.07;4.30;;;;;;;18.08;46.86;101193.94;5073705;28;20090;-74
2021/04/17 12:04:07;;;;;;;6.85;4.13;;;;;;;18.27;44.11;101189.63;5073490;28;20478;-75
2021/04/17 12:06:53;;;;;;;5.68;4.20;;;;;;;18.69;43.55;101185.22;5074366;28;20035;-74
2021/04/17 12:09:39;;;;;;;6.75;4.10;;;;;;;18.63;43.11;101182.81;5059478;28;20090;-73
2021/04/17 12:12:25;;;;;;;5.68;4.10;;;;;;;18.05;43.21;101179.03;5073805;28;20044;-71
2021/04/17 12:15:13;;;;;;;7.50;4.10;;;;;;;18.12;43.72;101171.69;5073282;28;20429;-74
2021/04/17 12:17:58;;;;;;;6.15;4.00;;;;;;;18.39;43.83;101166.16;5073399;28;20035;-73
2021/04/17 12:20:45;;;;;;;6.85;4.20;;;;;;;18.28;46.05;101154.19;5060325;28;20032;-72
2021/04/17 12:23:31;;;;;;;6.43;4.43;;;;;;;18.50;45.15;101155.94;5058643;28;20032;-73
2021/04/17 12:26:16;;;;;;;5.57;4.30;;;;;;;17.86;45.78;101155.97;5057870;28;20031;-73
2021/04/17 12:29:03;;;;;;;5.63;4.50;;;;;;;17.85;46.64;101154.25;5058260;28;20086;-73
2021/04/17 12:31:49;;;;;;;5.43;4.40;;;;;;;18.44;45.34;101152.66;5072875;28;20103;-73
2021/04/17 12:34:35;;;;;;;6.25;4.97;;;;;;;18.23;45.28;101156.19;5073901;28;20036;-73
2021/04/17 12:37:21;;;;;;;10.00;4.65;;;;;;;18.88;44.77;101151.59;5073956;28;20043;-73
2021/04/17 12:40:08;;;;;;;5.95;3.90;;;;;;;18.40;45.13;101154.59;5073052;28;20024;-73
2021/04/17 12:42:54;;;;;;;7.32;4.00;;;;;;;17.82;43.67;101144.66;5073369;28;20024;-73
2021/04/17 12:45:40;;;;;;;9.82;4.28;;;;;;;18.22;43.54;101149.16;5073624;28;20020;-74
2021/04/17 12:48:26;;;;;;;7.20;4.20;;;;;;;18.10;42.82;101155.84;5074279;28;20025;-73
2021/04/17 12:51:12;;;;;;;9.27;4.57;;;;;;;17.97;43.97;101140.50;5073857;28;20031;-73
2021/04/17 12:53:58;;;;;;;11.13;5.72;;;;;;;18.22;44.08;101138.56;5058906;28;20033;-73
2021/04/17 12:56:44;;;;;;;9.73;4.50;;;;;;;18.22;43.68;101142.09;5072438;28;20099;-73
2021/04/17 12:59:29;;;;;;;10.75;5.82;;;;;;;18.34;43.83;101141.59;5072954;28;20107;-74
2021/04/17 13:02:15;;;;;;;8.07;5.70;;;;;;;18.62;43.62;101139.47;5073273;28;20032;-73